sensor_id;sensor_type;location;lat;lon;timestamp;P1;durP1;ratioP1;P2;durP2;ratioP2
54263;SDS011;40178;53.042;6.406;2023-04-24T00:00:12;7.00;;;4.07;;
54263;SDS011;40178;53.042;6.406;2023-04-24T00:02:39;5.35;;;2.95;;
54263;SDS011;40178;53.042;6.406;2023-04-24T00:05:05;4.82;;;2.55;;
54263;SDS011;40178;53.042;6.406;2023-04-24T00:07:32;4.88;;;2.92;;
54263;SDS011;40178;53.042;6.406;2023-04-24T00:09:58;4.60;;;2.50;;
54263;SDS011;40178;53.042;6.406;2023-04-24T00:12:24;4.70;;;2.10;;
54263;SDS011;40178;53.042;6.406;2023-04-24T00:14:50;3.92;;;2.20;;
54263;SDS011;40178;53.042;6.406;2023-04-24T00:17:16;6.15;;;2.25;;
54263;SDS011;40178;53.042;6.406;2023-04-24T00:19:45;8.57;;;2.40;;
54263;SDS011;40178;53.042;6.406;2023-04-24T00:22:11;5.07;;;2.33;;
54263;SDS011;40178;53.042;6.406;2023-04-24T00:24:38;5.85;;;2.45;;
54263;SDS011;40178;53.042;6.406;2023-04-24T00:27:04;4.80;;;2.50;;
54263;SDS011;40178;53.042;6.406;2023-04-24T00:29:29;4.43;;;2.00;;
54263;SDS011;40178;53.042;6.406;2023-04-24T00:31:55;3.25;;;1.55;;
54263;SDS011;40178;53.042;6.406;2023-04-24T00:34:21;2.42;;;1.02;;
54263;SDS011;40178;53.042;6.406;2023-04-24T00:36:47;3.15;;;1.20;;
54263;SDS011;40178;53.042;6.406;2023-04-24T00:39:14;2.40;;;1.15;;
54263;SDS011;40178;53.042;6.406;2023-04-24T00:41:40;3.70;;;1.00;;
54263;SDS011;40178;53.042;6.406;2023-04-24T00:44:06;2.47;;;1.00;;
54263;SDS011;40178;53.042;6.406;2023-04-24T00:46:32;2.00;;;0.80;;
54263;SDS011;40178;53.042;6.406;2023-04-24T00:48:58;2.20;;;0.93;;
54263;SDS011;40178;53.042;6.406;2023-04-24T00:51:24;3.05;;;1.10;;
54263;SDS011;40178;53.042;6.406;2023-04-24T00:53:50;1.88;;;0.82;;
54263;SDS011;40178;53.042;6.406;2023-04-24T00:56:17;2.42;;;1.00;;
54263;SDS011;40178;53.042;6.406;2023-04-24T00:58:43;2.53;;;1.13;;
54263;SDS011;40178;53.042;6.406;2023-04-24T01:01:09;2.33;;;1.10;;
54263;SDS011;40178;53.042;6.406;2023-04-24T01:03:36;2.70;;;1.20;;
54263;SDS011;40178;53.042;6.406;2023-04-24T01:06:03;2.70;;;1.45;;
54263;SDS011;40178;53.042;6.406;2023-04-24T01:08:30;2.35;;;1.20;;
54263;SDS011;40178;53.042;6.406;2023-04-24T01:10:57;3.15;;;1.33;;
54263;SDS011;40178;53.042;6.406;2023-04-24T01:13:22;3.72;;;1.80;;
54263;SDS011;40178;53.042;6.406;2023-04-24T01:15:48;4.03;;;1.73;;
54263;SDS011;40178;53.042;6.406;2023-04-24T01:18:14;3.00;;;1.55;;
54263;SDS011;40178;53.042;6.406;2023-04-24T01:20:42;3.05;;;1.58;;
54263;SDS011;40178;53.042;6.406;2023-04-24T01:23:10;4.45;;;1.50;;
54263;SDS011;40178;53.042;6.406;2023-04-24T01:25:36;4.82;;;1.60;;
54263;SDS011;40178;53.042;6.406;2023-04-24T01:28:02;4.90;;;1.85;;
54263;SDS011;40178;53.042;6.406;2023-04-24T01:30:28;4.03;;;1.88;;
54263;SDS011;40178;53.042;6.406;2023-04-24T01:32:54;4.63;;;2.13;;
54263;SDS011;40178;53.042;6.406;2023-04-24T01:35:21;4.05;;;2.17;;
54263;SDS011;40178;53.042;6.406;2023-04-24T01:37:46;4.20;;;2.03;;
54263;SDS011;40178;53.042;6.406;2023-04-24T01:40:12;4.40;;;2.40;;
54263;SDS011;40178;53.042;6.406;2023-04-24T01:42:38;5.45;;;2.40;;
54263;SDS011;40178;53.042;6.406;2023-04-24T01:45:05;4.60;;;2.30;;
54263;SDS011;40178;53.042;6.406;2023-04-24T01:47:34;4.80;;;2.50;;
54263;SDS011;40178;53.042;6.406;2023-04-24T01:50:00;5.75;;;2.70;;
54263;SDS011;40178;53.042;6.406;2023-04-24T01:52:26;5.25;;;2.67;;
54263;SDS011;40178;53.042;6.406;2023-04-24T01:54:52;4.85;;;2.70;;
54263;SDS011;40178;53.042;6.406;2023-04-24T01:57:17;5.88;;;2.97;;
54263;SDS011;40178;53.042;6.406;2023-04-24T01:59:43;5.38;;;3.05;;
54263;SDS011;40178;53.042;6.406;2023-04-24T02:02:09;5.35;;;3.00;;
54263;SDS011;40178;53.042;6.406;2023-04-24T02:04:34;8.25;;;3.65;;
54263;SDS011;40178;53.042;6.406;2023-04-24T02:07:00;6.65;;;4.60;;
54263;SDS011;40178;53.042;6.406;2023-04-24T02:09:26;6.78;;;3.75;;
54263;SDS011;40178;53.042;6.406;2023-04-24T02:11:51;5.72;;;3.55;;
54263;SDS011;40178;53.042;6.406;2023-04-24T02:14:17;6.95;;;3.60;;
54263;SDS011;40178;53.042;6.406;2023-04-24T02:16:43;6.90;;;3.92;;
54263;SDS011;40178;53.042;6.406;2023-04-24T02:19:09;6.75;;;4.07;;
54263;SDS011;40178;53.042;6.406;2023-04-24T02:21:35;7.03;;;4.00;;
54263;SDS011;40178;53.042;6.406;2023-04-24T02:24:01;7.28;;;4.60;;
54263;SDS011;40178;53.042;6.406;2023-04-24T02:26:27;7.78;;;4.70;;
54263;SDS011;40178;53.042;6.406;2023-04-24T02:28:52;7.70;;;4.90;;
54263;SDS011;40178;53.042;6.406;2023-04-24T02:31:18;8.55;;;5.43;;
54263;SDS011;40178;53.042;6.406;2023-04-24T02:33:43;9.43;;;5.43;;
54263;SDS011;40178;53.042;6.406;2023-04-24T02:36:09;8.95;;;5.53;;
54263;SDS011;40178;53.042;6.406;2023-04-24T02:38:35;9.20;;;5.70;;
54263;SDS011;40178;53.042;6.406;2023-04-24T02:41:00;8.50;;;5.30;;
54263;SDS011;40178;53.042;6.406;2023-04-24T02:43:29;10.65;;;6.05;;
54263;SDS011;40178;53.042;6.406;2023-04-24T02:45:54;10.25;;;5.93;;
54263;SDS011;40178;53.042;6.406;2023-04-24T02:48:20;10.27;;;6.63;;
54263;SDS011;40178;53.042;6.406;2023-04-24T02:50:46;11.02;;;7.32;;
54263;SDS011;40178;53.042;6.406;2023-04-24T02:53:11;12.98;;;7.97;;
54263;SDS011;40178;53.042;6.406;2023-04-24T02:55:37;12.27;;;7.95;;
54263;SDS011;40178;53.042;6.406;2023-04-24T02:58:03;14.32;;;9.25;;
54263;SDS011;40178;53.042;6.406;2023-04-24T03:00:28;13.00;;;9.32;;
54263;SDS011;40178;53.042;6.406;2023-04-24T03:02:54;13.48;;;9.38;;
54263;SDS011;40178;53.042;6.406;2023-04-24T03:05:20;12.90;;;9.15;;
54263;SDS011;40178;53.042;6.406;2023-04-24T03:07:46;12.90;;;9.23;;
54263;SDS011;40178;53.042;6.406;2023-04-24T03:10:11;12.50;;;9.02;;
54263;SDS011;40178;53.042;6.406;2023-04-24T03:12:37;13.55;;;9.90;;
54263;SDS011;40178;53.042;6.406;2023-04-24T03:15:03;13.07;;;9.52;;
54263;SDS011;40178;53.042;6.406;2023-04-24T03:17:29;12.30;;;9.15;;
54263;SDS011;40178;53.042;6.406;2023-04-24T03:19:54;13.07;;;9.45;;
54263;SDS011;40178;53.042;6.406;2023-04-24T03:22:20;12.02;;;8.35;;
54263;SDS011;40178;53.042;6.406;2023-04-24T03:24:45;12.98;;;8.30;;
54263;SDS011;40178;53.042;6.406;2023-04-24T03:27:11;10.68;;;8.00;;
54263;SDS011;40178;53.042;6.406;2023-04-24T03:29:37;11.05;;;7.72;;
54263;SDS011;40178;53.042;6.406;2023-04-24T03:32:02;10.95;;;7.85;;
54263;SDS011;40178;53.042;6.406;2023-04-24T03:34:28;10.30;;;7.38;;
54263;SDS011;40178;53.042;6.406;2023-04-24T03:36:54;10.55;;;7.38;;
54263;SDS011;40178;53.042;6.406;2023-04-24T03:39:19;10.77;;;8.13;;
54263;SDS011;40178;53.042;6.406;2023-04-24T03:41:45;11.25;;;7.90;;
54263;SDS011;40178;53.042;6.406;2023-04-24T03:44:10;10.65;;;6.80;;
54263;SDS011;40178;53.042;6.406;2023-04-24T03:46:36;10.60;;;7.30;;
54263;SDS011;40178;53.042;6.406;2023-04-24T03:49:02;11.05;;;6.72;;
54263;SDS011;40178;53.042;6.406;2023-04-24T03:51:27;10.90;;;6.93;;
54263;SDS011;40178;53.042;6.406;2023-04-24T03:53:55;9.02;;;6.13;;
54263;SDS011;40178;53.042;6.406;2023-04-24T03:56:20;9.88;;;6.53;;
54263;SDS011;40178;53.042;6.406;2023-04-24T03:58:46;9.95;;;6.57;;
54263;SDS011;40178;53.042;6.406;2023-04-24T04:01:12;9.63;;;6.93;;
54263;SDS011;40178;53.042;6.406;2023-04-24T04:03:38;9.85;;;6.82;;
54263;SDS011;40178;53.042;6.406;2023-04-24T04:06:04;9.32;;;6.15;;
54263;SDS011;40178;53.042;6.406;2023-04-24T04:08:29;10.07;;;6.18;;
54263;SDS011;40178;53.042;6.406;2023-04-24T04:10:55;9.98;;;5.63;;
54263;SDS011;40178;53.042;6.406;2023-04-24T04:13:21;9.15;;;6.25;;
54263;SDS011;40178;53.042;6.406;2023-04-24T04:15:46;8.60;;;5.60;;
54263;SDS011;40178;53.042;6.406;2023-04-24T04:18:12;10.52;;;5.88;;
54263;SDS011;40178;53.042;6.406;2023-04-24T04:20:37;10.23;;;6.47;;
54263;SDS011;40178;53.042;6.406;2023-04-24T04:23:03;9.60;;;6.35;;
54263;SDS011;40178;53.042;6.406;2023-04-24T04:25:29;9.80;;;6.05;;
54263;SDS011;40178;53.042;6.406;2023-04-24T04:27:54;9.40;;;6.35;;
54263;SDS011;40178;53.042;6.406;2023-04-24T04:30:20;10.65;;;6.65;;
54263;SDS011;40178;53.042;6.406;2023-04-24T04:32:46;9.07;;;6.07;;
54263;SDS011;40178;53.042;6.406;2023-04-24T04:35:12;10.80;;;6.55;;
54263;SDS011;40178;53.042;6.406;2023-04-24T04:37:37;10.95;;;6.65;;
54263;SDS011;40178;53.042;6.406;2023-04-24T04:40:03;11.23;;;6.40;;
54263;SDS011;40178;53.042;6.406;2023-04-24T04:42:32;10.50;;;6.53;;
54263;SDS011;40178;53.042;6.406;2023-04-24T04:44:59;9.38;;;5.85;;
54263;SDS011;40178;53.042;6.406;2023-04-24T04:47:25;8.65;;;5.40;;
54263;SDS011;40178;53.042;6.406;2023-04-24T04:49:53;9.75;;;5.28;;
54263;SDS011;40178;53.042;6.406;2023-04-24T04:52:19;11.23;;;6.25;;
54263;SDS011;40178;53.042;6.406;2023-04-24T04:54:45;9.32;;;5.80;;
54263;SDS011;40178;53.042;6.406;2023-04-24T04:57:11;11.35;;;6.05;;
54263;SDS011;40178;53.042;6.406;2023-04-24T04:59:37;12.43;;;7.78;;
54263;SDS011;40178;53.042;6.406;2023-04-24T05:02:02;9.70;;;5.97;;
54263;SDS011;40178;53.042;6.406;2023-04-24T05:04:28;10.30;;;5.97;;
54263;SDS011;40178;53.042;6.406;2023-04-24T05:06:53;10.50;;;6.13;;
54263;SDS011;40178;53.042;6.406;2023-04-24T05:09:19;7.80;;;4.10;;
54263;SDS011;40178;53.042;6.406;2023-04-24T05:11:45;6.18;;;3.35;;
54263;SDS011;40178;53.042;6.406;2023-04-24T05:14:11;7.32;;;3.38;;
54263;SDS011;40178;53.042;6.406;2023-04-24T05:16:37;6.22;;;2.67;;
54263;SDS011;40178;53.042;6.406;2023-04-24T05:19:03;5.20;;;2.30;;
54263;SDS011;40178;53.042;6.406;2023-04-24T05:21:29;5.15;;;2.42;;
54263;SDS011;40178;53.042;6.406;2023-04-24T05:23:55;5.97;;;2.67;;
54263;SDS011;40178;53.042;6.406;2023-04-24T05:26:21;5.88;;;2.20;;
54263;SDS011;40178;53.042;6.406;2023-04-24T05:28:47;4.82;;;2.10;;
54263;SDS011;40178;53.042;6.406;2023-04-24T05:31:13;3.75;;;1.50;;
54263;SDS011;40178;53.042;6.406;2023-04-24T05:33:39;4.57;;;1.88;;
54263;SDS011;40178;53.042;6.406;2023-04-24T05:36:05;6.50;;;1.80;;
54263;SDS011;40178;53.042;6.406;2023-04-24T05:38:31;4.45;;;1.70;;
54263;SDS011;40178;53.042;6.406;2023-04-24T05:40:57;4.38;;;1.58;;
54263;SDS011;40178;53.042;6.406;2023-04-24T05:43:22;4.40;;;1.70;;
54263;SDS011;40178;53.042;6.406;2023-04-24T05:45:48;4.85;;;1.70;;
54263;SDS011;40178;53.042;6.406;2023-04-24T05:48:14;4.53;;;1.80;;
54263;SDS011;40178;53.042;6.406;2023-04-24T05:50:39;4.15;;;1.50;;
54263;SDS011;40178;53.042;6.406;2023-04-24T05:53:05;4.60;;;1.45;;
54263;SDS011;40178;53.042;6.406;2023-04-24T05:55:32;4.13;;;1.50;;
54263;SDS011;40178;53.042;6.406;2023-04-24T05:57:57;3.67;;;1.20;;
54263;SDS011;40178;53.042;6.406;2023-04-24T06:00:23;7.32;;;2.20;;
54263;SDS011;40178;53.042;6.406;2023-04-24T06:02:49;4.75;;;1.65;;
54263;SDS011;40178;53.042;6.406;2023-04-24T06:05:15;3.40;;;1.10;;
54263;SDS011;40178;53.042;6.406;2023-04-24T06:07:40;4.22;;;1.42;;
54263;SDS011;40178;53.042;6.406;2023-04-24T06:10:06;4.25;;;1.40;;
54263;SDS011;40178;53.042;6.406;2023-04-24T06:12:32;5.78;;;2.03;;
54263;SDS011;40178;53.042;6.406;2023-04-24T06:14:58;4.63;;;1.67;;
54263;SDS011;40178;53.042;6.406;2023-04-24T06:17:23;5.30;;;1.85;;
54263;SDS011;40178;53.042;6.406;2023-04-24T06:19:49;5.10;;;1.83;;
54263;SDS011;40178;53.042;6.406;2023-04-24T06:22:15;4.45;;;1.52;;
54263;SDS011;40178;53.042;6.406;2023-04-24T06:24:40;5.05;;;2.08;;
54263;SDS011;40178;53.042;6.406;2023-04-24T06:27:06;4.95;;;1.70;;
54263;SDS011;40178;53.042;6.406;2023-04-24T06:29:33;6.43;;;2.05;;
54263;SDS011;40178;53.042;6.406;2023-04-24T06:31:59;7.53;;;2.50;;
54263;SDS011;40178;53.042;6.406;2023-04-24T06:34:25;6.03;;;2.25;;
54263;SDS011;40178;53.042;6.406;2023-04-24T06:36:50;7.03;;;2.53;;
54263;SDS011;40178;53.042;6.406;2023-04-24T06:39:16;7.10;;;2.60;;
54263;SDS011;40178;53.042;6.406;2023-04-24T06:41:42;6.30;;;3.20;;
54263;SDS011;40178;53.042;6.406;2023-04-24T06:44:07;7.15;;;2.70;;
54263;SDS011;40178;53.042;6.406;2023-04-24T06:46:33;8.45;;;3.55;;
54263;SDS011;40178;53.042;6.406;2023-04-24T06:48:59;6.78;;;3.17;;
54263;SDS011;40178;53.042;6.406;2023-04-24T06:51:26;6.32;;;2.70;;
54263;SDS011;40178;53.042;6.406;2023-04-24T06:53:55;10.32;;;4.57;;
54263;SDS011;40178;53.042;6.406;2023-04-24T06:56:21;7.15;;;3.05;;
54263;SDS011;40178;53.042;6.406;2023-04-24T06:58:47;6.90;;;3.03;;
54263;SDS011;40178;53.042;6.406;2023-04-24T07:01:13;7.82;;;2.80;;
54263;SDS011;40178;53.042;6.406;2023-04-24T07:03:39;6.47;;;2.45;;
54263;SDS011;40178;53.042;6.406;2023-04-24T07:06:05;6.05;;;2.45;;
54263;SDS011;40178;53.042;6.406;2023-04-24T07:08:31;8.30;;;2.10;;
54263;SDS011;40178;53.042;6.406;2023-04-24T07:10:58;4.63;;;2.05;;
54263;SDS011;40178;53.042;6.406;2023-04-24T07:13:24;5.55;;;2.28;;
54263;SDS011;40178;53.042;6.406;2023-04-24T07:15:49;4.40;;;1.80;;
54263;SDS011;40178;53.042;6.406;2023-04-24T07:18:17;5.82;;;2.13;;
54263;SDS011;40178;53.042;6.406;2023-04-24T07:20:43;5.20;;;1.80;;
54263;SDS011;40178;53.042;6.406;2023-04-24T07:23:09;4.00;;;1.30;;
54263;SDS011;40178;53.042;6.406;2023-04-24T07:25:35;3.85;;;1.52;;
54263;SDS011;40178;53.042;6.406;2023-04-24T07:28:01;4.28;;;1.48;;
54263;SDS011;40178;53.042;6.406;2023-04-24T07:30:26;4.18;;;1.40;;
54263;SDS011;40178;53.042;6.406;2023-04-24T07:32:54;3.88;;;1.70;;
54263;SDS011;40178;53.042;6.406;2023-04-24T07:35:20;4.25;;;1.83;;
54263;SDS011;40178;53.042;6.406;2023-04-24T07:37:45;5.38;;;1.60;;
54263;SDS011;40178;53.042;6.406;2023-04-24T07:40:12;4.78;;;1.55;;
54263;SDS011;40178;53.042;6.406;2023-04-24T07:42:38;5.60;;;1.52;;
54263;SDS011;40178;53.042;6.406;2023-04-24T07:45:04;7.20;;;1.40;;
54263;SDS011;40178;53.042;6.406;2023-04-24T07:47:30;8.30;;;1.75;;
54263;SDS011;40178;53.042;6.406;2023-04-24T07:49:57;4.82;;;1.27;;
54263;SDS011;40178;53.042;6.406;2023-04-24T07:52:23;4.88;;;1.58;;
54263;SDS011;40178;53.042;6.406;2023-04-24T07:54:49;7.18;;;2.50;;
54263;SDS011;40178;53.042;6.406;2023-04-24T07:57:15;11.15;;;3.83;;
54263;SDS011;40178;53.042;6.406;2023-04-24T07:59:41;8.73;;;3.88;;
54263;SDS011;40178;53.042;6.406;2023-04-24T08:02:07;8.52;;;3.83;;
54263;SDS011;40178;53.042;6.406;2023-04-24T08:04:33;12.18;;;4.88;;
54263;SDS011;40178;53.042;6.406;2023-04-24T08:06:58;11.52;;;5.60;;
54263;SDS011;40178;53.042;6.406;2023-04-24T08:09:24;15.68;;;6.20;;
54263;SDS011;40178;53.042;6.406;2023-04-24T08:11:50;16.08;;;6.45;;
54263;SDS011;40178;53.042;6.406;2023-04-24T08:14:15;19.15;;;6.63;;
54263;SDS011;40178;53.042;6.406;2023-04-24T08:16:41;17.80;;;6.75;;
54263;SDS011;40178;53.042;6.406;2023-04-24T08:19:07;15.38;;;6.45;;
54263;SDS011;40178;53.042;6.406;2023-04-24T08:21:33;17.50;;;6.25;;
54263;SDS011;40178;53.042;6.406;2023-04-24T08:23:58;11.98;;;5.57;;
54263;SDS011;40178;53.042;6.406;2023-04-24T08:26:24;11.25;;;5.03;;
54263;SDS011;40178;53.042;6.406;2023-04-24T08:28:49;13.70;;;5.78;;
54263;SDS011;40178;53.042;6.406;2023-04-24T08:31:15;14.85;;;6.03;;
54263;SDS011;40178;53.042;6.406;2023-04-24T08:33:41;13.25;;;6.47;;
54263;SDS011;40178;53.042;6.406;2023-04-24T08:36:09;15.40;;;6.15;;
54263;SDS011;40178;53.042;6.406;2023-04-24T08:38:35;19.75;;;7.40;;
54263;SDS011;40178;53.042;6.406;2023-04-24T08:41:01;15.02;;;7.13;;
54263;SDS011;40178;53.042;6.406;2023-04-24T08:43:27;15.35;;;6.68;;
54263;SDS011;40178;53.042;6.406;2023-04-24T08:45:54;18.55;;;7.70;;
54263;SDS011;40178;53.042;6.406;2023-04-24T08:48:21;14.70;;;7.28;;
54263;SDS011;40178;53.042;6.406;2023-04-24T08:50:48;14.70;;;7.63;;
54263;SDS011;40178;53.042;6.406;2023-04-24T08:53:15;15.68;;;7.53;;
54263;SDS011;40178;53.042;6.406;2023-04-24T08:55:41;17.17;;;7.75;;
54263;SDS011;40178;53.042;6.406;2023-04-24T08:58:11;19.98;;;8.27;;
54263;SDS011;40178;53.042;6.406;2023-04-24T09:00:38;17.15;;;8.45;;
54263;SDS011;40178;53.042;6.406;2023-04-24T09:03:04;15.02;;;8.43;;
54263;SDS011;40178;53.042;6.406;2023-04-24T09:05:31;19.30;;;7.93;;
54263;SDS011;40178;53.042;6.406;2023-04-24T09:07:58;14.48;;;7.10;;
54263;SDS011;40178;53.042;6.406;2023-04-24T09:10:26;14.90;;;6.63;;
54263;SDS011;40178;53.042;6.406;2023-04-24T09:12:55;11.20;;;6.07;;
54263;SDS011;40178;53.042;6.406;2023-04-24T09:15:24;12.73;;;6.75;;
54263;SDS011;40178;53.042;6.406;2023-04-24T09:17:49;11.68;;;6.30;;
54263;SDS011;40178;53.042;6.406;2023-04-24T09:20:15;11.90;;;5.95;;
54263;SDS011;40178;53.042;6.406;2023-04-24T09:22:41;15.35;;;5.55;;
54263;SDS011;40178;53.042;6.406;2023-04-24T09:25:08;11.93;;;5.20;;
54263;SDS011;40178;53.042;6.406;2023-04-24T09:27:36;10.05;;;5.00;;
54263;SDS011;40178;53.042;6.406;2023-04-24T09:30:07;11.35;;;5.50;;
54263;SDS011;40178;53.042;6.406;2023-04-24T09:32:33;16.20;;;5.68;;
54263;SDS011;40178;53.042;6.406;2023-04-24T09:37:46;11.60;;;4.97;;
54263;SDS011;40178;53.042;6.406;2023-04-24T09:40:20;13.00;;;5.22;;
54263;SDS011;40178;53.042;6.406;2023-04-24T09:42:56;8.88;;;5.25;;
54263;SDS011;40178;53.042;6.406;2023-04-24T09:45:27;10.43;;;4.90;;
54263;SDS011;40178;53.042;6.406;2023-04-24T09:47:53;13.45;;;5.90;;
54263;SDS011;40178;53.042;6.406;2023-04-24T09:50:20;12.63;;;5.72;;
54263;SDS011;40178;53.042;6.406;2023-04-24T09:52:47;9.27;;;4.28;;
54263;SDS011;40178;53.042;6.406;2023-04-24T09:55:26;10.05;;;4.03;;
54263;SDS011;40178;53.042;6.406;2023-04-24T09:57:56;8.32;;;3.60;;
54263;SDS011;40178;53.042;6.406;2023-04-24T10:00:25;13.60;;;4.20;;
54263;SDS011;40178;53.042;6.406;2023-04-24T10:02:59;10.18;;;3.78;;
54263;SDS011;40178;53.042;6.406;2023-04-24T10:05:29;7.80;;;2.88;;
54263;SDS011;40178;53.042;6.406;2023-04-24T10:08:03;10.00;;;3.15;;
54263;SDS011;40178;53.042;6.406;2023-04-24T10:10:38;9.13;;;3.20;;
54263;SDS011;40178;53.042;6.406;2023-04-24T10:13:07;10.85;;;3.17;;
54263;SDS011;40178;53.042;6.406;2023-04-24T10:15:34;9.38;;;2.80;;
54263;SDS011;40178;53.042;6.406;2023-04-24T10:18:00;19.73;;;3.90;;
54263;SDS011;40178;53.042;6.406;2023-04-24T10:20:28;14.73;;;3.22;;
54263;SDS011;40178;53.042;6.406;2023-04-24T10:22:55;7.07;;;2.83;;
54263;SDS011;40178;53.042;6.406;2023-04-24T10:25:29;5.35;;;2.00;;
54263;SDS011;40178;53.042;6.406;2023-04-24T10:27:56;7.10;;;2.03;;
54263;SDS011;40178;53.042;6.406;2023-04-24T10:30:25;6.47;;;2.15;;
54263;SDS011;40178;53.042;6.406;2023-04-24T10:32:51;7.38;;;1.95;;
54263;SDS011;40178;53.042;6.406;2023-04-24T10:35:17;9.20;;;2.58;;
54263;SDS011;40178;53.042;6.406;2023-04-24T10:37:53;6.95;;;1.88;;
54263;SDS011;40178;53.042;6.406;2023-04-24T10:40:27;11.50;;;2.38;;
54263;SDS011;40178;53.042;6.406;2023-04-24T10:43:01;8.60;;;2.13;;
54263;SDS011;40178;53.042;6.406;2023-04-24T10:45:28;5.30;;;2.08;;
54263;SDS011;40178;53.042;6.406;2023-04-24T10:48:04;4.70;;;1.52;;
54263;SDS011;40178;53.042;6.406;2023-04-24T10:50:51;5.07;;;1.60;;
54263;SDS011;40178;53.042;6.406;2023-04-24T10:53:18;5.57;;;1.40;;
54263;SDS011;40178;53.042;6.406;2023-04-24T10:56:04;5.43;;;2.10;;
54263;SDS011;40178;53.042;6.406;2023-04-24T10:58:36;5.50;;;1.98;;
54263;SDS011;40178;53.042;6.406;2023-04-24T11:01:09;5.35;;;1.73;;
54263;SDS011;40178;53.042;6.406;2023-04-24T11:03:59;4.57;;;2.15;;
54263;SDS011;40178;53.042;6.406;2023-04-24T11:06:31;8.02;;;2.05;;
54263;SDS011;40178;53.042;6.406;2023-04-24T11:09:07;8.52;;;1.77;;
54263;SDS011;40178;53.042;6.406;2023-04-24T11:11:35;5.35;;;1.48;;
54263;SDS011;40178;53.042;6.406;2023-04-24T11:14:06;6.55;;;1.60;;
54263;SDS011;40178;53.042;6.406;2023-04-24T11:16:43;2.65;;;1.00;;
54263;SDS011;40178;53.042;6.406;2023-04-24T11:24:36;5.57;;;1.50;;
54263;SDS011;40178;53.042;6.406;2023-04-24T11:27:15;6.38;;;1.38;;
54263;SDS011;40178;53.042;6.406;2023-04-24T11:34:50;4.47;;;1.20;;
54263;SDS011;40178;53.042;6.406;2023-04-24T11:37:24;3.55;;;1.05;;
54263;SDS011;40178;53.042;6.406;2023-04-24T11:39:53;7.18;;;1.35;;
54263;SDS011;40178;53.042;6.406;2023-04-24T11:42:20;7.80;;;1.67;;
54263;SDS011;40178;53.042;6.406;2023-04-24T11:44:47;5.38;;;1.25;;
54263;SDS011;40178;53.042;6.406;2023-04-24T11:47:14;4.22;;;1.10;;
54263;SDS011;40178;53.042;6.406;2023-04-24T11:49:40;4.25;;;1.25;;
54263;SDS011;40178;53.042;6.406;2023-04-24T11:52:06;4.35;;;0.90;;
54263;SDS011;40178;53.042;6.406;2023-04-24T11:54:31;4.85;;;0.90;;
54263;SDS011;40178;53.042;6.406;2023-04-24T11:56:57;3.60;;;1.05;;
54263;SDS011;40178;53.042;6.406;2023-04-24T11:59:23;5.10;;;1.02;;
54263;SDS011;40178;53.042;6.406;2023-04-24T12:01:49;7.70;;;1.73;;
54263;SDS011;40178;53.042;6.406;2023-04-24T12:04:16;5.13;;;1.15;;
54263;SDS011;40178;53.042;6.406;2023-04-24T12:07:01;5.40;;;1.30;;
54263;SDS011;40178;53.042;6.406;2023-04-24T12:09:28;3.47;;;0.90;;
54263;SDS011;40178;53.042;6.406;2023-04-24T12:11:54;3.50;;;1.05;;
54263;SDS011;40178;53.042;6.406;2023-04-24T12:14:23;2.28;;;0.80;;
54263;SDS011;40178;53.042;6.406;2023-04-24T12:16:52;6.10;;;0.93;;
54263;SDS011;40178;53.042;6.406;2023-04-24T12:19:21;3.15;;;0.80;;
54263;SDS011;40178;53.042;6.406;2023-04-24T12:22:03;2.08;;;0.50;;
54263;SDS011;40178;53.042;6.406;2023-04-24T12:24:30;3.45;;;0.82;;
54263;SDS011;40178;53.042;6.406;2023-04-24T12:26:56;4.32;;;1.05;;
54263;SDS011;40178;53.042;6.406;2023-04-24T12:29:23;3.20;;;0.95;;
54263;SDS011;40178;53.042;6.406;2023-04-24T12:31:50;3.53;;;1.05;;
54263;SDS011;40178;53.042;6.406;2023-04-24T12:34:23;4.30;;;1.08;;
54263;SDS011;40178;53.042;6.406;2023-04-24T12:36:50;4.63;;;0.95;;
54263;SDS011;40178;53.042;6.406;2023-04-24T12:39:19;4.72;;;1.05;;
54263;SDS011;40178;53.042;6.406;2023-04-24T12:41:55;6.43;;;1.15;;
54263;SDS011;40178;53.042;6.406;2023-04-24T12:44:35;4.00;;;1.30;;
54263;SDS011;40178;53.042;6.406;2023-04-24T12:47:02;3.25;;;0.63;;
54263;SDS011;40178;53.042;6.406;2023-04-24T12:49:27;4.50;;;1.05;;
54263;SDS011;40178;53.042;6.406;2023-04-24T12:51:55;6.22;;;0.95;;
54263;SDS011;40178;53.042;6.406;2023-04-24T12:54:20;3.28;;;0.60;;
54263;SDS011;40178;53.042;6.406;2023-04-24T12:56:47;4.05;;;0.70;;
54263;SDS011;40178;53.042;6.406;2023-04-24T12:59:12;5.25;;;0.68;;
54263;SDS011;40178;53.042;6.406;2023-04-24T13:01:38;5.80;;;1.27;;
54263;SDS011;40178;53.042;6.406;2023-04-24T13:04:05;5.82;;;1.00;;
54263;SDS011;40178;53.042;6.406;2023-04-24T13:06:30;5.10;;;1.20;;
54263;SDS011;40178;53.042;6.406;2023-04-24T13:08:56;3.47;;;0.47;;
54263;SDS011;40178;53.042;6.406;2023-04-24T13:11:23;5.63;;;1.05;;
54263;SDS011;40178;53.042;6.406;2023-04-24T13:13:49;4.95;;;0.55;;
54263;SDS011;40178;53.042;6.406;2023-04-24T13:16:15;3.22;;;0.65;;
54263;SDS011;40178;53.042;6.406;2023-04-24T13:18:40;2.88;;;0.50;;
54263;SDS011;40178;53.042;6.406;2023-04-24T13:21:06;4.63;;;0.60;;
54263;SDS011;40178;53.042;6.406;2023-04-24T13:23:32;3.33;;;0.52;;
54263;SDS011;40178;53.042;6.406;2023-04-24T13:25:57;3.97;;;0.70;;
54263;SDS011;40178;53.042;6.406;2023-04-24T13:28:26;1.60;;;0.40;;
54263;SDS011;40178;53.042;6.406;2023-04-24T13:30:52;1.15;;;0.32;;
54263;SDS011;40178;53.042;6.406;2023-04-24T13:33:18;1.98;;;0.50;;
54263;SDS011;40178;53.042;6.406;2023-04-24T13:35:44;2.80;;;0.40;;
54263;SDS011;40178;53.042;6.406;2023-04-24T13:38:09;1.85;;;0.30;;
54263;SDS011;40178;53.042;6.406;2023-04-24T13:40:35;2.22;;;0.43;;
54263;SDS011;40178;53.042;6.406;2023-04-24T13:43:01;2.20;;;0.30;;
54263;SDS011;40178;53.042;6.406;2023-04-24T13:45:27;2.03;;;0.73;;
54263;SDS011;40178;53.042;6.406;2023-04-24T13:47:53;6.00;;;0.90;;
54263;SDS011;40178;53.042;6.406;2023-04-24T13:50:19;2.88;;;0.55;;
54263;SDS011;40178;53.042;6.406;2023-04-24T13:52:45;1.38;;;0.45;;
54263;SDS011;40178;53.042;6.406;2023-04-24T13:55:11;3.70;;;0.60;;
54263;SDS011;40178;53.042;6.406;2023-04-24T13:57:36;2.85;;;0.40;;
54263;SDS011;40178;53.042;6.406;2023-04-24T14:00:02;4.88;;;0.68;;
54263;SDS011;40178;53.042;6.406;2023-04-24T14:02:29;3.47;;;0.70;;
54263;SDS011;40178;53.042;6.406;2023-04-24T14:04:55;8.07;;;2.75;;
54263;SDS011;40178;53.042;6.406;2023-04-24T14:07:21;7.70;;;1.20;;
54263;SDS011;40178;53.042;6.406;2023-04-24T14:09:46;7.45;;;1.30;;
54263;SDS011;40178;53.042;6.406;2023-04-24T14:12:12;6.82;;;1.60;;
54263;SDS011;40178;53.042;6.406;2023-04-24T14:14:39;7.53;;;1.77;;
54263;SDS011;40178;53.042;6.406;2023-04-24T14:17:04;7.13;;;1.10;;
54263;SDS011;40178;53.042;6.406;2023-04-24T14:19:30;7.75;;;1.33;;
54263;SDS011;40178;53.042;6.406;2023-04-24T14:21:56;7.25;;;1.10;;
54263;SDS011;40178;53.042;6.406;2023-04-24T14:24:23;7.20;;;1.95;;
54263;SDS011;40178;53.042;6.406;2023-04-24T14:26:49;8.38;;;1.50;;
54263;SDS011;40178;53.042;6.406;2023-04-24T14:29:14;6.85;;;1.95;;
54263;SDS011;40178;53.042;6.406;2023-04-24T14:31:41;8.23;;;1.73;;
54263;SDS011;40178;53.042;6.406;2023-04-24T14:34:07;7.57;;;1.52;;
54263;SDS011;40178;53.042;6.406;2023-04-24T14:36:33;5.70;;;1.35;;
54263;SDS011;40178;53.042;6.406;2023-04-24T14:38:59;10.57;;;2.08;;
54263;SDS011;40178;53.042;6.406;2023-04-24T14:41:24;7.20;;;1.35;;
54263;SDS011;40178;53.042;6.406;2023-04-24T14:43:50;4.45;;;1.73;;
54263;SDS011;40178;53.042;6.406;2023-04-24T14:46:16;6.97;;;1.55;;
54263;SDS011;40178;53.042;6.406;2023-04-24T14:48:41;12.57;;;2.22;;
54263;SDS011;40178;53.042;6.406;2023-04-24T14:51:07;9.05;;;2.00;;
54263;SDS011;40178;53.042;6.406;2023-04-24T14:53:32;5.60;;;1.50;;